DCA weather

Ronald Reagan Washington National Airport
Washington, District of Columbia, United States

Public forecast

Using degrees Fahrenheit for public forecast. Weather courtesy of forecast.io.

Current aviation weather report (METAR) for Ronald Reagan Washington National Airport

Retrieved 2019/10/17 02:52 UTC (1 hour ago):

KDCA 170252Z 27012G21KT 10SM FEW040 12/03 A2959 RMK AO2 PK WND 30034/0156 SLP018 T01220033 51015

Aviation forecast (TAF) for Ronald Reagan Washington National Airport

Retrieved 2019-10-17 00:46 UTC (3 hours ago):

TAF KDCA 162344Z 1700/1806 30014G33KT P6SM FEW040 FEW250 FM170900 27012G33KT P6SM SCT040 BKN130 FM180100 29013G26KT P6SM FEW040 SCT250